Time;durP1;ratioP1;P1;durP2;ratioP2;P2;SDS_P1;SDS_P2;PMS_P1;PMS_P2;Temp;Humidity;BMP_temperature;BMP_pressure;BME280_temperature;BME280_humidity;BME280_pressure;Samples;Min_cycle;Max_cycle;Signal;HPM_P1;HPM_P2
2022/04/01 00:02:04;;;;;;;7.40;2.58;;;0.70;99.90;;;;;;5056005;28;20073;-69
2022/04/01 00:04:30;;;;;;;5.13;2.78;;;0.70;99.90;;;;;;5055898;28;20059;-69
2022/04/01 00:06:56;;;;;;;7.57;2.55;;;0.60;99.90;;;;;;5055835;28;20489;-69
2022/04/01 00:09:22;;;;;;;6.97;2.50;;;0.60;99.90;;;;;;5055972;28;20044;-69
2022/04/01 00:11:48;;;;;;;7.82;2.63;;;0.60;99.90;;;;;;5056058;28;20052;-69
2022/04/01 00:14:14;;;;;;;11.15;3.03;;;0.50;99.90;;;;;;5055816;28;20021;-69
2022/04/01 00:16:39;;;;;;;14.30;2.40;;;0.50;99.90;;;;;;5055656;28;20021;-69
2022/04/01 00:19:05;;;;;;;6.88;2.22;;;0.60;99.90;;;;;;5055669;28;20025;-69
2022/04/01 00:21:31;;;;;;;3.60;2.50;;;0.60;99.90;;;;;;5056355;28;20025;-69
2022/04/01 00:23:56;;;;;;;5.25;2.35;;;0.70;99.90;;;;;;5055583;28;20013;-69
2022/04/01 00:26:22;;;;;;;4.68;1.90;;;0.70;99.90;;;;;;5055288;28;20116;-69
2022/04/01 00:28:47;;;;;;;5.30;2.25;;;0.70;99.90;;;;;;5055765;28;20110;-69
2022/04/01 00:31:13;;;;;;;13.35;2.83;;;0.70;99.90;;;;;;5055693;28;20033;-69
2022/04/01 00:33:39;;;;;;;7.10;3.00;;;0.70;99.90;;;;;;5055422;28;20017;-69
2022/04/01 00:36:05;;;;;;;2.80;2.13;;;0.60;99.90;;;;;;5055027;28;20036;-69
2022/04/01 00:38:31;;;;;;;3.33;2.30;;;0.70;99.90;;;;;;5055277;28;20381;-69
2022/04/01 00:40:58;;;;;;;7.70;2.85;;;0.70;99.90;;;;;;5055261;28;20029;-69
2022/04/01 00:43:28;;;;;;;4.65;2.30;;;0.60;99.90;;;;;;5055454;28;20057;-69
2022/04/01 00:45:54;;;;;;;3.55;2.35;;;0.70;99.90;;;;;;5055147;28;20067;-69
2022/04/01 00:48:20;;;;;;;3.72;1.95;;;0.60;99.90;;;;;;5055128;28;20454;-69
2022/04/01 00:50:46;;;;;;;8.45;2.78;;;0.60;99.90;;;;;;5055086;28;20052;-69
2022/04/01 00:53:12;;;;;;;5.43;2.20;;;0.60;99.90;;;;;;5055014;28;20571;-69
2022/04/01 00:55:38;;;;;;;8.48;2.63;;;0.70;99.90;;;;;;5054958;28;20029;-69
2022/04/01 00:58:07;;;;;;;4.38;2.35;;;0.70;99.90;;;;;;5054962;28;20036;-69
2022/04/01 01:00:32;;;;;;;4.78;3.03;;;0.80;99.90;;;;;;5054884;28;20033;-69
2022/04/01 01:02:58;;;;;;;3.30;2.60;;;0.80;99.90;;;;;;5054976;28;20029;-69
2022/04/01 01:05:24;;;;;;;4.38;2.65;;;0.90;99.90;;;;;;5054811;28;20081;-69
2022/04/01 01:07:50;;;;;;;6.40;2.42;;;0.90;99.90;;;;;;5055256;28;20017;-69
2022/04/01 01:10:18;;;;;;;5.32;2.72;;;0.80;99.90;;;;;;5055017;28;20029;-69
2022/04/01 01:12:44;;;;;;;6.32;2.42;;;0.80;99.90;;;;;;5054857;28;20107;-69
2022/04/01 01:15:16;;;;;;;8.52;2.63;;;0.80;99.90;;;;;;5054758;28;20498;-69
2022/04/01 01:17:42;;;;;;;5.53;2.03;;;0.90;99.90;;;;;;5054779;28;20016;-69
2022/04/01 01:20:17;;;;;;;3.75;2.00;;;0.90;99.90;;;;;;5054468;28;20115;-69
2022/04/01 01:22:44;;;;;;;9.07;2.50;;;0.90;99.90;;;;;;5054765;28;20367;-69
2022/04/01 01:25:11;;;;;;;4.55;1.90;;;0.90;99.90;;;;;;5054393;28;20083;-69
2022/04/01 01:27:37;;;;;;;15.15;2.78;;;0.90;99.90;;;;;;5054200;28;20527;-69
2022/04/01 01:30:05;;;;;;;3.10;1.98;;;0.90;99.90;;;;;;5054323;28;20040;-69
2022/04/01 01:32:32;;;;;;;7.78;2.75;;;0.90;99.90;;;;;;5054264;28;20017;-69
2022/04/01 01:34:58;;;;;;;6.40;2.45;;;0.90;99.90;;;;;;5054141;28;20025;-69
2022/04/01 01:37:25;;;;;;;3.65;2.03;;;0.90;99.90;;;;;;5054087;28;20366;-69
2022/04/01 01:39:51;;;;;;;4.05;2.05;;;0.90;99.90;;;;;;5054211;28;20029;-69
2022/04/01 01:42:17;;;;;;;7.70;2.97;;;0.80;99.90;;;;;;5054061;28;20017;-69
2022/04/01 01:44:43;;;;;;;8.50;2.55;;;0.80;99.90;;;;;;5054268;28;20362;-69
2022/04/01 01:47:08;;;;;;;5.78;2.17;;;0.80;99.90;;;;;;5053135;28;20029;-69
2022/04/01 01:49:34;;;;;;;4.82;2.47;;;0.80;99.90;;;;;;5053899;28;20024;-69
2022/04/01 01:54:45;;;;;;;5.88;2.55;;;0.80;99.90;;;;;;5053884;28;20507;-69
2022/04/01 01:57:20;;;;;;;9.05;2.80;;;0.70;99.90;;;;;;5053060;28;20033;-69
2022/04/01 01:59:47;;;;;;;11.30;2.58;;;0.70;99.90;;;;;;5054295;28;20027;-69
2022/04/01 02:02:13;;;;;;;9.95;2.35;;;0.70;99.90;;;;;;5053847;28;20032;-69
2022/04/01 02:04:41;;;;;;;5.47;2.30;;;0.70;99.90;;;;;;5053984;28;20033;-69
2022/04/01 02:07:08;;;;;;;5.07;2.20;;;0.70;99.90;;;;;;5052313;28;20021;-69
2022/04/01 02:09:34;;;;;;;5.10;2.20;;;0.70;99.90;;;;;;5053553;28;20546;-69
2022/04/01 02:11:59;;;;;;;3.90;2.22;;;0.60;99.90;;;;;;5053628;28;20021;-69
2022/04/01 02:14:26;;;;;;;3.58;1.75;;;0.60;99.90;;;;;;5053484;28;20052;-69
2022/04/01 02:16:52;;;;;;;5.55;2.50;;;0.60;99.90;;;;;;5053956;28;20354;-69
2022/04/01 02:19:21;;;;;;;5.65;1.80;;;0.60;99.90;;;;;;5053677;28;20017;-69
2022/04/01 02:21:51;;;;;;;6.50;2.30;;;0.70;99.90;;;;;;5053729;28;20055;-69
2022/04/01 02:24:22;;;;;;;4.47;2.53;;;0.70;99.90;;;;;;5052115;28;20481;-69
2022/04/01 02:26:48;;;;;;;5.00;2.47;;;0.60;99.90;;;;;;5053288;28;20029;-69
2022/04/01 02:29:19;;;;;;;4.85;2.75;;;0.60;99.90;;;;;;5053344;28;20025;-69
2022/04/01 02:31:45;;;;;;;7.03;2.05;;;0.50;99.90;;;;;;5053617;28;20058;-69
2022/04/01 02:34:11;;;;;;;5.95;2.78;;;0.50;99.90;;;;;;5053380;28;20392;-69
2022/04/01 02:36:38;;;;;;;5.80;2.47;;;0.50;99.90;;;;;;5053002;28;20025;-69
2022/04/01 02:39:05;;;;;;;7.68;3.28;;;0.50;99.90;;;;;;5052274;28;20043;-69
2022/04/01 02:41:31;;;;;;;10.10;2.40;;;0.50;99.90;;;;;;5053605;28;20017;-69
2022/04/01 02:44:08;;;;;;;5.40;2.72;;;0.50;99.90;;;;;;5053258;28;20100;-69
2022/04/01 02:46:35;;;;;;;8.02;2.90;;;0.50;99.90;;;;;;5053145;28;20040;-69
2022/04/01 02:49:01;;;;;;;7.07;2.28;;;0.50;99.90;;;;;;5053428;28;20025;-69
2022/04/01 02:51:27;;;;;;;5.20;2.90;;;0.50;99.90;;;;;;5053642;28;20028;-69
2022/04/01 02:53:53;;;;;;;7.78;2.85;;;0.50;99.90;;;;;;5053087;28;20025;-69
2022/04/01 02:56:18;;;;;;;10.23;3.20;;;0.40;99.90;;;;;;5053199;28;20025;-69
2022/04/01 02:58:44;;;;;;;6.78;2.60;;;0.40;99.90;;;;;;5055574;28;20031;-69
2022/04/01 03:01:09;;;;;;;3.67;2.47;;;0.40;99.90;;;;;;5057104;28;20049;-69
2022/04/01 03:03:35;;;;;;;5.70;2.28;;;0.40;99.90;;;;;;5057314;28;20377;-69
2022/04/01 03:06:04;;;;;;;7.38;2.55;;;0.40;99.90;;;;;;5056954;28;20065;-69
2022/04/01 03:08:29;;;;;;;5.25;2.53;;;0.40;99.90;;;;;;5057158;28;20021;-69
2022/04/01 03:10:58;;;;;;;3.80;2.33;;;0.40;99.90;;;;;;5056934;28;20025;-69
2022/04/01 03:13:23;;;;;;;7.40;2.45;;;0.40;99.90;;;;;;5057494;28;20273;-69
2022/04/01 03:15:49;;;;;;;8.10;2.28;;;0.40;99.90;;;;;;5056967;28;20112;-69
2022/04/01 03:18:14;;;;;;;6.78;2.50;;;0.30;99.90;;;;;;5057299;28;20032;-69
2022/04/01 03:20:40;;;;;;;4.55;2.45;;;0.40;99.90;;;;;;5057347;28;20021;-69
2022/04/01 03:23:06;;;;;;;11.00;3.63;;;0.40;99.90;;;;;;5056717;28;20024;-69
2022/04/01 03:25:35;;;;;;;5.05;2.08;;;0.40;99.90;;;;;;5056636;28;20477;-69
2022/04/01 03:28:04;;;;;;;4.45;2.20;;;0.40;99.90;;;;;;5056678;28;20032;-69
2022/04/01 03:30:30;;;;;;;8.32;1.92;;;0.40;99.90;;;;;;5056529;28;20036;-69
2022/04/01 03:32:56;;;;;;;9.38;2.67;;;0.40;99.90;;;;;;5056550;28;20024;-70
2022/04/01 03:35:23;;;;;;;4.18;2.38;;;0.40;99.90;;;;;;5056420;28;20465;-70
2022/04/01 03:37:49;;;;;;;9.15;2.83;;;0.40;99.90;;;;;;5056460;28;20021;-69
2022/04/01 03:40:16;;;;;;;4.30;2.00;;;0.40;99.90;;;;;;5056654;28;20116;-70
2022/04/01 03:42:44;;;;;;;3.92;2.28;;;0.40;99.90;;;;;;5056890;28;20017;-69
2022/04/01 03:45:11;;;;;;;14.00;2.50;;;0.50;99.90;;;;;;5056318;28;20020;-69
2022/04/01 03:47:40;;;;;;;5.53;2.90;;;0.40;99.90;;;;;;5056626;28;20029;-68
2022/04/01 03:50:10;;;;;;;10.18;2.65;;;0.40;99.90;;;;;;5056497;28;20061;-68
2022/04/01 03:52:36;;;;;;;4.50;2.55;;;0.40;99.90;;;;;;5056202;28;20017;-68
2022/04/01 03:55:04;;;;;;;11.73;2.80;;;0.40;99.90;;;;;;5056122;28;20029;-68
2022/04/01 03:57:41;;;;;;;5.40;2.67;;;0.40;99.90;;;;;;5056184;28;20021;-68
2022/04/01 04:00:12;;;;;;;7.55;2.20;;;0.40;99.90;;;;;;5056082;28;20056;-68
2022/04/01 04:02:47;;;;;;;4.05;2.40;;;0.40;99.90;;;;;;5056330;28;20017;-68
2022/04/01 04:05:15;;;;;;;5.03;2.28;;;0.40;99.90;;;;;;5056534;28;20021;-68
2022/04/01 04:07:41;;;;;;;5.93;2.45;;;0.40;99.90;;;;;;5055905;28;20029;-68
2022/04/01 04:10:08;;;;;;;7.80;2.72;;;0.40;99.90;;;;;;5055044;28;20025;-68
2022/04/01 04:12:35;;;;;;;5.28;2.20;;;0.40;99.90;;;;;;5055782;28;20028;-68
2022/04/01 04:15:03;;;;;;;5.85;2.35;;;0.40;99.90;;;;;;5055908;28;20104;-68
2022/04/01 04:17:38;;;;;;;4.65;2.72;;;0.40;99.90;;;;;;5055686;28;20022;-68
2022/04/01 04:20:41;;;;;;;3.17;2.38;;;0.40;99.90;;;;;;5056016;28;20033;-68
2022/04/01 04:23:19;;;;;;;5.60;2.47;;;0.30;99.90;;;;;;5055531;28;20020;-68
2022/04/01 04:26:15;;;;;;;3.15;2.53;;;0.40;99.90;;;;;;5055768;28;20082;-68
2022/04/01 04:28:54;;;;;;;4.70;2.60;;;0.40;99.90;;;;;;5055758;28;20112;-68
2022/04/01 04:31:26;;;;;;;10.20;3.28;;;0.40;99.90;;;;;;5055830;28;20025;-68
2022/04/01 04:33:55;;;;;;;14.57;3.25;;;0.40;99.90;;;;;;5055446;28;20480;-68
2022/04/01 04:36:30;;;;;;;4.97;2.42;;;0.30;99.90;;;;;;5055099;28;20032;-68
2022/04/01 04:38:56;;;;;;;6.47;3.00;;;0.40;99.90;;;;;;5055654;28;20025;-68
2022/04/01 04:41:22;;;;;;;5.63;2.90;;;0.30;99.90;;;;;;5055312;28;20021;-68
2022/04/01 04:43:50;;;;;;;13.48;2.90;;;0.30;99.90;;;;;;5055347;28;20021;-68
2022/04/01 04:46:17;;;;;;;5.22;2.28;;;0.20;99.90;;;;;;5055197;28;20103;-68
2022/04/01 04:48:45;;;;;;;9.77;2.60;;;0.20;99.90;;;;;;5055725;28;20053;-68
2022/04/01 04:51:10;;;;;;;9.82;3.15;;;0.30;99.90;;;;;;5055124;28;20091;-68
2022/04/01 04:53:38;;;;;;;4.78;3.33;;;0.30;99.90;;;;;;5055060;28;20099;-68
2022/04/01 04:56:05;;;;;;;4.50;2.42;;;0.30;99.90;;;;;;5053591;28;20565;-68
2022/04/01 04:58:43;;;;;;;8.38;2.85;;;0.20;99.90;;;;;;5054898;28;20017;-68
2022/04/01 05:01:54;;;;;;;5.32;2.20;;;0.20;99.90;;;;;;5055625;28;20067;-68
2022/04/01 05:04:42;;;;;;;11.02;2.53;;;0.20;99.90;;;;;;5021754;28;20041;-68
2022/04/01 05:07:18;;;;;;;9.02;2.45;;;0.20;99.90;;;;;;5054738;28;20028;-68
2022/04/01 05:09:43;;;;;;;3.95;2.38;;;0.20;99.90;;;;;;5054858;28;20067;-68
2022/04/01 05:12:36;;;;;;;3.53;2.47;;;0.10;99.90;;;;;;5054764;28;20064;-68
2022/04/01 05:15:10;;;;;;;5.13;2.77;;;0.00;99.90;;;;;;5055199;28;20025;-68
2022/04/01 05:17:44;;;;;;;4.50;2.42;;;0.00;99.90;;;;;;5054586;28;20251;-68
2022/04/01 05:20:17;;;;;;;7.32;3.45;;;0.00;99.90;;;;;;5054958;28;20025;-68
2022/04/01 05:23:06;;;;;;;6.85;2.42;;;0.10;99.90;;;;;;5053607;28;20074;-68
2022/04/01 05:25:40;;;;;;;5.30;2.35;;;0.20;99.90;;;;;;5054812;28;20465;-68
2022/04/01 05:28:10;;;;;;;6.68;2.75;;;0.30;99.90;;;;;;5054724;28;20464;-68
2022/04/01 05:30:38;;;;;;;7.22;3.33;;;0.30;99.90;;;;;;5054558;28;20037;-68
2022/04/01 05:33:17;;;;;;;4.18;2.75;;;0.40;99.90;;;;;;5054480;28;20032;-68
2022/04/01 05:35:51;;;;;;;5.57;2.92;;;0.40;99.90;;;;;;5054425;28;20469;-68
2022/04/01 05:38:19;;;;;;;7.43;3.47;;;0.50;99.90;;;;;;5054515;28;20021;-68
2022/04/01 05:40:45;;;;;;;6.85;3.47;;;0.60;99.90;;;;;;5054150;28;20485;-68
2022/04/01 05:43:13;;;;;;;4.30;2.22;;;0.60;99.90;;;;;;5054102;28;20028;-68
2022/04/01 05:45:42;;;;;;;7.43;2.65;;;0.70;99.90;;;;;;5053866;28;20028;-68
2022/04/01 05:48:10;;;;;;;8.02;2.83;;;0.70;99.90;;;;;;5052806;28;20428;-68
2022/04/01 05:50:37;;;;;;;5.60;2.70;;;0.70;99.90;;;;;;5053952;28;20037;-68
2022/04/01 05:53:05;;;;;;;7.95;3.17;;;0.80;99.90;;;;;;5053899;28;20044;-68
2022/04/01 05:55:32;;;;;;;4.32;2.60;;;0.80;99.90;;;;;;5053905;28;20544;-68
2022/04/01 05:57:58;;;;;;;8.50;3.33;;;0.80;99.90;;;;;;5053849;28;20025;-68
2022/04/01 06:00:23;;;;;;;11.25;3.10;;;0.80;99.90;;;;;;5054062;28;20086;-68
2022/04/01 06:03:17;;;;;;;7.47;2.72;;;0.80;99.90;;;;;;5053866;28;20025;-68
2022/04/01 06:05:56;;;;;;;5.53;2.30;;;0.90;99.90;;;;;;5053655;28;20060;-68
2022/04/01 06:08:47;;;;;;;5.13;2.85;;;0.90;99.90;;;;;;5053691;28;20044;-68
2022/04/01 06:11:18;;;;;;;4.78;2.63;;;1.00;99.90;;;;;;5053790;28;20025;-68
2022/04/01 06:13:47;;;;;;;5.85;2.65;;;1.00;99.90;;;;;;5053936;28;20025;-68
2022/04/01 06:16:27;;;;;;;6.85;2.58;;;1.00;99.90;;;;;;5053414;28;20025;-71
2022/04/01 06:19:22;;;;;;;5.68;2.92;;;1.10;99.90;;;;;;5053912;28;20045;-68
2022/04/01 06:22:03;;;;;;;8.20;2.35;;;1.10;99.90;;;;;;5053589;28;20035;-68
2022/04/01 06:24:45;;;;;;;6.05;2.88;;;1.10;99.90;;;;;;5053756;28;20017;-68
2022/04/01 06:27:13;;;;;;;7.38;2.45;;;1.20;99.90;;;;;;5053480;28;20021;-68
2022/04/01 06:29:47;;;;;;;15.05;2.50;;;1.20;99.90;;;;;;5053374;28;20095;-68
2022/04/01 06:32:28;;;;;;;3.92;1.75;;;1.30;99.90;;;;;;5053109;28;20025;-68
2022/04/01 06:35:06;;;;;;;3.72;1.83;;;1.30;99.90;;;;;;5053548;28;20125;-68
2022/04/01 06:37:36;;;;;;;7.38;2.13;;;1.40;99.90;;;;;;5053316;28;20029;-68
2022/04/01 06:40:12;;;;;;;5.15;3.03;;;1.40;99.90;;;;;;5053261;28;20488;-68
2022/04/01 06:42:39;;;;;;;10.27;2.13;;;1.50;99.90;;;;;;5053338;28;20036;-68
2022/04/01 06:45:10;;;;;;;2.95;1.83;;;1.50;99.90;;;;;;5053493;28;20029;-68
2022/04/01 06:47:36;;;;;;;7.25;2.10;;;1.60;99.90;;;;;;5053135;28;20116;-68
2022/04/01 06:50:04;;;;;;;7.65;1.88;;;1.60;99.90;;;;;;5053505;28;20037;-68
2022/04/01 06:52:29;;;;;;;5.88;1.90;;;1.70;99.90;;;;;;5053137;28;20083;-68
2022/04/01 06:54:56;;;;;;;3.85;2.22;;;1.70;99.90;;;;;;5053056;28;20029;-68
2022/04/01 06:57:22;;;;;;;4.03;1.90;;;1.80;99.90;;;;;;5053075;28;20541;-68
2022/04/01 06:59:48;;;;;;;8.40;2.67;;;1.80;99.90;;;;;;5053107;28;20017;-68
2022/04/01 07:02:14;;;;;;;7.97;2.35;;;1.80;99.90;;;;;;5053328;28;20519;-68
2022/04/01 07:04:39;;;;;;;4.88;2.00;;;1.90;99.90;;;;;;5053052;28;20017;-68
2022/04/01 07:07:05;;;;;;;8.07;2.22;;;1.90;99.90;;;;;;5052936;28;20018;-68
2022/04/01 07:09:31;;;;;;;8.85;2.72;;;2.00;99.90;;;;;;5052994;28;20021;-68
2022/04/01 07:11:59;;;;;;;11.32;2.50;;;2.10;99.90;;;;;;5052925;28;20521;-68
2022/04/01 07:14:27;;;;;;;7.07;3.00;;;2.20;99.90;;;;;;5052920;28;20025;-68
2022/04/01 07:16:55;;;;;;;13.90;6.60;;;2.20;99.90;;;;;;5052725;28;20024;-68
2022/04/01 07:19:21;;;;;;;13.13;4.43;;;2.20;99.90;;;;;;5052903;28;20025;-68
2022/04/01 07:21:47;;;;;;;10.82;5.10;;;2.30;99.90;;;;;;5052948;28;20032;-68
2022/04/01 07:24:12;;;;;;;8.52;2.40;;;2.30;99.90;;;;;;5053033;28;20025;-68
2022/04/01 07:26:38;;;;;;;22.35;7.57;;;2.40;99.90;;;;;;5052966;28;20029;-68
2022/04/01 07:29:04;;;;;;;25.58;5.15;;;2.50;99.90;;;;;;5052812;28;20048;-68
2022/04/01 07:34:21;;;;;;;5.72;3.25;;;2.60;99.90;;;;;;5052726;28;20040;-68
2022/04/01 07:36:47;;;;;;;5.10;1.80;;;2.70;99.90;;;;;;5052715;28;20508;-68
2022/04/01 07:39:12;;;;;;;4.57;2.08;;;2.80;99.90;;;;;;5052756;28;20032;-68
2022/04/01 07:41:39;;;;;;;7.95;2.78;;;2.80;99.90;;;;;;5052723;28;20083;-68
2022/04/01 07:44:05;;;;;;;5.38;2.28;;;2.90;99.90;;;;;;5052658;28;20101;-68
2022/04/01 07:46:30;;;;;;;6.43;2.03;;;3.00;99.90;;;;;;5056228;28;20041;-68
2022/04/01 07:48:56;;;;;;;3.67;1.75;;;3.10;99.90;;;;;;5056199;28;20108;-68
2022/04/01 07:51:22;;;;;;;2.35;1.90;;;3.10;99.90;;;;;;5056838;28;20021;-68
2022/04/01 07:53:48;;;;;;;6.05;1.65;;;3.20;99.90;;;;;;5056445;28;20029;-68
2022/04/01 07:56:13;;;;;;;7.72;3.42;;;3.30;99.90;;;;;;5056003;28;20092;-68
2022/04/01 07:58:39;;;;;;;6.57;2.17;;;3.40;99.90;;;;;;5056111;28;20021;-68
2022/04/01 08:01:04;;;;;;;1.88;1.30;;;3.30;99.90;;;;;;5056109;28;20443;-68
2022/04/01 08:03:30;;;;;;;4.63;1.77;;;3.40;99.90;;;;;;5055946;28;20091;-68
2022/04/01 08:05:58;;;;;;;3.80;1.70;;;3.50;99.90;;;;;;5055869;28;20477;-68
2022/04/01 08:08:24;;;;;;;3.53;1.63;;;3.50;99.90;;;;;;5056258;28;20399;-68
2022/04/01 08:10:51;;;;;;;5.53;2.20;;;3.50;99.90;;;;;;5055915;28;20036;-68
2022/04/01 08:13:17;;;;;;;5.35;1.50;;;3.60;99.90;;;;;;5055881;28;20128;-68
2022/04/01 08:15:43;;;;;;;6.57;1.52;;;3.60;99.90;;;;;;5055880;28;20032;-68
2022/04/01 08:18:09;;;;;;;5.95;2.08;;;3.60;99.90;;;;;;5055712;28;20465;-68
2022/04/01 08:20:35;;;;;;;3.33;1.90;;;3.70;99.90;;;;;;5055884;28;20029;-68
2022/04/01 08:23:02;;;;;;;3.75;1.77;;;3.90;99.90;;;;;;5055597;28;20021;-68
2022/04/01 08:25:27;;;;;;;4.20;2.05;;;3.90;99.90;;;;;;5055537;28;20017;-68
2022/04/01 08:27:53;;;;;;;4.05;1.67;;;3.80;99.90;;;;;;5055750;28;20159;-68
2022/04/01 08:30:19;;;;;;;3.97;1.92;;;3.90;99.90;;;;;;5055495;28;20027;-68
2022/04/01 08:32:44;;;;;;;6.63;1.83;;;4.00;99.90;;;;;;5055748;28;20499;-70
2022/04/01 08:35:10;;;;;;;5.32;1.90;;;4.10;99.90;;;;;;5055340;28;20385;-69
2022/04/01 08:37:36;;;;;;;1.77;1.40;;;4.20;99.90;;;;;;5055321;28;20025;-69
2022/04/01 08:40:04;;;;;;;2.15;1.77;;;4.10;99.90;;;;;;5055913;28;20444;-68
2022/04/01 08:42:32;;;;;;;5.53;1.83;;;4.20;99.90;;;;;;5055297;28;20041;-68
2022/04/01 08:44:58;;;;;;;3.85;1.63;;;4.20;99.90;;;;;;5055180;28;20032;-68
2022/04/01 08:47:24;;;;;;;4.03;1.10;;;4.20;99.90;;;;;;5054956;28;20029;-67
2022/04/01 08:49:52;;;;;;;5.20;2.17;;;4.30;99.90;;;;;;5055329;28;20376;-68
2022/04/01 08:52:18;;;;;;;2.88;1.10;;;4.40;99.90;;;;;;5055086;28;20024;-68
2022/04/01 08:54:43;;;;;;;2.15;1.40;;;4.60;99.90;;;;;;5054974;28;20021;-69
2022/04/01 08:57:09;;;;;;;3.15;1.95;;;4.70;99.90;;;;;;5054740;28;20049;-68
2022/04/01 08:59:35;;;;;;;4.47;1.48;;;4.80;99.90;;;;;;5054868;28;20096;-68
2022/04/01 09:02:09;;;;;;;10.13;2.05;;;4.80;99.90;;;;;;5054861;28;20017;-68
2022/04/01 09:04:36;;;;;;;4.57;1.70;;;4.70;99.90;;;;;;5055168;28;20036;-68
2022/04/01 09:07:15;;;;;;;5.60;1.65;;;4.70;99.90;;;;;;5055156;28;20460;-68
2022/04/01 09:09:41;;;;;;;5.90;1.90;;;4.80;99.90;;;;;;5054746;28;20104;-68
2022/04/01 09:12:14;;;;;;;3.47;1.25;;;4.80;99.90;;;;;;5054630;28;20053;-68
2022/04/01 09:14:41;;;;;;;;;;;4.90;99.90;;;;;;5055592;28;20025;-68
2022/04/01 09:17:10;;;;;;;4.55;1.85;;;5.10;99.90;;;;;;5054454;28;19909;-68
2022/04/01 09:19:36;;;;;;;5.05;1.77;;;5.10;99.90;;;;;;5054516;28;20554;-69
2022/04/01 09:22:23;;;;;;;7.60;1.67;;;5.40;99.90;;;;;;5054703;28;20055;-69
2022/04/01 09:25:10;;;;;;;3.17;2.00;;;5.50;99.90;;;;;;5054513;28;20021;-68
2022/04/01 09:27:50;;;;;;;2.55;1.33;;;5.50;99.90;;;;;;5054373;28;20109;-68
2022/04/01 09:30:18;;;;;;;6.47;1.50;;;5.40;99.90;;;;;;5054699;28;20097;-69
2022/04/01 09:32:44;;;;;;;18.85;1.67;;;5.50;99.90;;;;;;5054270;28;20029;-69
2022/04/01 09:35:11;;;;;;;3.83;1.80;;;5.40;99.90;;;;;;5054543;28;20096;-69
2022/04/01 09:37:38;;;;;;;2.03;1.25;;;5.40;99.90;;;;;;5054233;28;20445;-69
2022/04/01 09:40:04;;;;;;;2.80;1.58;;;5.50;99.90;;;;;;5054316;28;20025;-69
2022/04/01 09:42:29;;;;;;;4.75;1.77;;;5.50;99.90;;;;;;5054154;28;20052;-69
2022/04/01 09:44:58;;;;;;;3.63;1.40;;;5.70;99.90;;;;;;5054554;28;20067;-69
2022/04/01 09:47:24;;;;;;;1.90;1.33;;;5.80;99.90;;;;;;5094089;22;20040;-73
2022/04/01 09:49:52;;;;;;;4.63;1.50;;;5.70;99.90;;;;;;5054975;28;20029;-71
2022/04/01 09:52:20;;;;;;;3.67;1.48;;;5.70;99.90;;;;;;5054549;28;20587;-72
2022/04/01 09:54:50;;;;;;;4.60;1.55;;;5.60;99.90;;;;;;5055150;28;20509;-70
2022/04/01 09:57:19;;;;;;;5.03;1.88;;;5.60;99.90;;;;;;5055653;28;20078;-71
2022/04/01 09:59:46;;;;;;;2.65;1.60;;;5.50;99.90;;;;;;5054448;28;20079;-70
2022/04/01 10:02:12;;;;;;;3.28;1.30;;;5.60;99.90;;;;;;5054237;28;20024;-70
2022/04/01 10:04:37;;;;;;;2.88;1.55;;;5.90;99.90;;;;;;5054254;28;20100;-71
2022/04/01 10:07:03;;;;;;;2.50;1.38;;;6.10;99.90;;;;;;5053705;28;20128;-71
2022/04/01 10:09:33;;;;;;;5.50;1.35;;;6.30;99.90;;;;;;5053795;28;20025;-70
2022/04/01 10:12:02;;;;;;;3.72;1.55;;;6.10;99.90;;;;;;5054178;28;20103;-70
2022/04/01 10:14:30;;;;;;;2.30;1.20;;;6.10;99.90;;;;;;5054018;28;20104;-70
2022/04/01 10:17:00;;;;;;;2.55;1.60;;;6.10;99.90;;;;;;5053828;28;20114;-72
2022/04/01 10:19:29;;;;;;;1.88;1.40;;;6.20;99.90;;;;;;5054017;28;20375;-72
2022/04/01 10:21:55;;;;;;;3.03;1.73;;;6.40;99.90;;;;;;5054056;28;20540;-69
2022/04/01 10:24:27;;;;;;;2.67;1.67;;;6.40;99.90;;;;;;5053653;28;20071;-69
2022/04/01 10:27:31;;;;;;;2.80;2.38;;;6.50;99.90;;;;;;5053843;28;20067;-70
2022/04/01 10:29:57;;;;;;;4.30;1.90;;;6.70;99.90;;;;;;4998777;28;20064;-69
2022/04/01 10:32:27;;;;;;;1.92;1.70;;;7.00;99.90;;;;;;5053845;28;20477;-70
2022/04/01 10:34:56;;;;;;;2.97;1.40;;;7.10;99.90;;;;;;5053554;28;20025;-70
2022/04/01 10:37:25;;;;;;;3.95;1.65;;;7.10;99.90;;;;;;5053505;28;20031;-69
2022/04/01 10:39:57;;;;;;;2.67;1.50;;;6.90;99.90;;;;;;5053459;28;20023;-69
2022/04/01 10:42:26;;;;;;;3.17;1.40;;;6.70;99.90;;;;;;5053721;28;20096;-69
2022/04/01 10:44:55;;;;;;;2.95;1.73;;;6.70;99.90;;;;;;5053966;28;20028;-70
2022/04/01 10:47:24;;;;;;;3.25;0.90;;;6.50;99.90;;;;;;5053331;28;20112;-70
2022/04/01 10:52:34;;;;;;;3.30;1.65;;;6.60;99.90;;;;;;5053484;28;20075;-69
2022/04/01 10:55:03;;;;;;;3.70;1.88;;;6.60;99.90;;;;;;5053360;28;20021;-69
2022/04/01 10:57:30;;;;;;;8.13;2.00;;;6.70;99.90;;;;;;5053204;28;20025;-69
2022/04/01 11:00:02;;;;;;;7.15;2.17;;;6.80;99.90;;;;;;5053389;28;20515;-69
2022/04/01 11:02:28;;;;;;;3.22;1.52;;;6.90;99.90;;;;;;5053443;28;20021;-69
2022/04/01 11:04:53;;;;;;;8.82;4.40;;;6.90;99.90;;;;;;5053342;28;20511;-69
2022/04/01 11:07:22;;;;;;;6.75;2.47;;;7.20;99.90;;;;;;5053323;28;20028;-70
2022/04/01 11:10:01;;;;;;;2.67;1.83;;;7.30;99.90;;;;;;5053246;28;20022;-70
2022/04/01 11:12:31;;;;;;;3.20;2.00;;;7.40;99.90;;;;;;5053757;28;20021;-70
2022/04/01 11:15:00;;;;;;;6.03;2.75;;;7.40;99.90;;;;;;5053208;28;20032;-70
2022/04/01 11:17:26;;;;;;;4.60;2.20;;;7.30;99.90;;;;;;5053327;28;20024;-70
2022/04/01 11:20:07;;;;;;;7.70;2.70;;;7.20;99.90;;;;;;5054555;28;20025;-70
2022/04/01 11:23:00;;;;;;;5.97;1.58;;;7.20;99.90;;;;;;5057172;28;20025;-70
2022/04/01 11:25:28;;;;;;;4.63;2.17;;;7.20;99.90;;;;;;5056955;28;20437;-69
2022/04/01 11:27:57;;;;;;;3.92;2.28;;;7.10;99.90;;;;;;5056960;28;20147;-69
2022/04/01 11:30:29;;;;;;;3.25;1.50;;;7.40;99.90;;;;;;5057068;28;20362;-69
2022/04/01 11:33:16;;;;;;;2.75;1.58;;;7.20;99.90;;;;;;5057288;28;20108;-69
2022/04/01 11:35:50;;;;;;;2.00;1.60;;;7.20;99.90;;;;;;5056036;28;20043;-69
2022/04/01 11:38:18;;;;;;;3.47;1.73;;;6.80;99.90;;;;;;5056894;28;20071;-69
2022/04/01 11:40:46;;;;;;;4.78;1.55;;;6.60;99.90;;;;;;5056878;28;20048;-69
2022/04/01 11:43:13;;;;;;;3.25;1.48;;;6.60;99.90;;;;;;5056793;28;20449;-70
2022/04/01 11:45:50;;;;;;;3.20;1.50;;;6.60;99.90;;;;;;5056777;28;20053;-69
2022/04/01 11:48:26;;;;;;;2.50;1.60;;;6.70;99.90;;;;;;5056578;28;20033;-70
2022/04/01 11:50:59;;;;;;;5.47;2.20;;;6.80;99.90;;;;;;5056798;28;20502;-70
2022/04/01 11:53:35;;;;;;;2.40;1.65;;;6.80;99.90;;;;;;5057155;28;20376;-70
2022/04/01 11:56:03;;;;;;;4.05;1.45;;;6.90;99.90;;;;;;5056465;28;20361;-70
2022/04/01 11:59:02;;;;;;;8.40;3.72;;;7.00;99.90;;;;;;5056452;28;20023;-69
2022/04/01 12:01:55;;;;;;;3.65;2.15;;;6.90;99.90;;;;;;5056828;28;20130;-69
2022/04/01 12:04:30;;;;;;;2.57;1.53;;;7.10;99.90;;;;;;5056683;28;20017;-69
2022/04/01 12:09:43;;;;;;;2.72;1.45;;;7.20;99.90;;;;;;5056498;28;20388;-69
2022/04/01 12:12:09;;;;;;;6.28;2.22;;;7.40;99.90;;;;;;5056256;28;20017;-69
2022/04/01 12:14:37;;;;;;;3.05;1.70;;;7.50;99.90;;;;;;5056167;28;20029;-69
2022/04/01 12:17:07;;;;;;;4.60;2.00;;;7.70;99.90;;;;;;5056193;28;20473;-69
2022/04/01 12:19:33;;;;;;;6.53;1.80;;;7.80;99.90;;;;;;5056526;28;20156;-69
2022/04/01 12:22:00;;;;;;;4.15;2.35;;;7.90;99.90;;;;;;5055955;28;20096;-69
2022/04/01 12:24:28;;;;;;;8.73;2.35;;;8.00;99.90;;;;;;5055946;28;20092;-69
2022/04/01 12:26:54;;;;;;;5.90;3.42;;;8.10;99.90;;;;;;5056000;28;20028;-69
2022/04/01 12:29:23;;;;;;;8.45;1.52;;;8.30;99.90;;;;;;5056437;28;20465;-69
2022/04/01 12:31:57;;;;;;;2.80;1.42;;;8.50;99.90;;;;;;5055479;28;20025;-69
2022/04/01 12:34:24;;;;;;;5.53;1.38;;;9.00;99.90;;;;;;5055810;28;20452;-68
2022/04/01 12:37:00;;;;;;;8.52;4.35;;;9.30;99.90;;;;;;5056031;28;20465;-67
2022/04/01 12:39:27;;;;;;;3.28;1.98;;;9.40;99.90;;;;;;5055659;28;20032;-67
2022/04/01 12:42:01;;;;;;;59.60;25.05;;;9.00;99.90;;;;;;5055498;28;20052;-67
2022/04/01 12:44:31;;;;;;;7.85;2.13;;;9.00;99.90;;;;;;5037938;28;20082;-67
2022/04/01 12:47:00;;;;;;;3.30;1.70;;;8.90;99.90;;;;;;5055415;28;20090;-69
2022/04/01 12:49:27;;;;;;;3.90;1.17;;;9.00;99.90;;;;;;5055806;28;20526;-69
2022/04/01 12:51:58;;;;;;;6.60;2.70;;;9.10;99.90;;;;;;5055446;28;20052;-67
2022/04/01 12:54:25;;;;;;;9.70;5.00;;;9.20;99.90;;;;;;5055703;28;20485;-67
2022/04/01 12:56:52;;;;;;;4.78;1.35;;;8.90;99.80;;;;;;5055659;28;20488;-69
2022/04/01 12:59:21;;;;;;;4.18;2.08;;;8.90;99.90;;;;;;5055211;28;20096;-69
2022/04/01 13:02:00;;;;;;;11.25;4.00;;;8.50;98.60;;;;;;5055100;28;20025;-67
2022/04/01 13:04:26;;;;;;;6.03;1.63;;;8.70;99.90;;;;;;5055474;28;20462;-69
2022/04/01 13:07:12;;;;;;;5.55;2.97;;;8.90;99.90;;;;;;5055380;28;20037;-69
2022/04/01 13:09:57;;;;;;;3.22;1.80;;;9.10;99.00;;;;;;5055359;28;20099;-69
2022/04/01 13:12:31;;;;;;;3.70;1.50;;;8.90;98.20;;;;;;5054991;28;20036;-68
2022/04/01 13:14:58;;;;;;;4.72;1.63;;;9.00;99.80;;;;;;5055034;28;20610;-68
2022/04/01 13:17:24;;;;;;;4.78;2.40;;;9.40;99.10;;;;;;5054869;28;20028;-68
2022/04/01 13:19:50;;;;;;;8.02;3.22;;;9.30;97.70;;;;;;5055021;28;20017;-68